• Join FlightAware (Why Join?)
  • Login
  • US Flag 
12:05AM EST


 

Airport Tracker/Info


-or-


 

Live Flight TrackerFlight Track Log ✈ SWA876 ✈ 11-May-2013 ✈ KMDW - KDTW

Flight Track Log - Related Links

Times and Time Zones

All times are in EDT time to prevent confusion due to time zone crossing. See the SWA876 flight status page for this flight to view local times or setup timezone preferences in your user account.

Time Position Orientation Groundspeed Altitude Reporting Facility
EDT Latitude Longitude Course Direction KTS MPH feet Rate Location/Type
10:35AM 41.8167 -87.7500 98° East 193 222 2,100  Level Chicago TRACON
10:36AM 41.8058 -87.6178 96° East 257 296 5,700 2,940 Climbing Chicago Center
10:37AM 41.7972 -87.5047 96° East 294 338 10,000 3,960 Climbing Chicago Center
10:38AM 41.7881 -87.3811 96° East 327 376 13,900 3,120 Climbing Chicago Center
10:39AM 41.7742 -87.2092 96° East 387 445 16,400 2,820 Climbing Chicago Center
10:40AM 41.7623 -87.1603 98° East  Level FlightAware Approximate
10:40AM 41.7608 -87.0497 96° East 427 491 19,700  Level Chicago Center
10:41AM 41.7719 -86.8803 85° East 454 522 22,700 1,560 Climbing Chicago Center
10:42AM 41.7994 -86.7086 78° East 468 539 23,000 120 Climbing Chicago Center
10:43AM 41.8261 -86.5228 79° East 470 541 23,000  Level Chicago Center
10:44AM 41.8497 -86.3506 80° East 468 539 23,000  Level Chicago Center
10:45AM 41.8739 -86.1783 79° East 468 539 23,000  Level Chicago Center
10:46AM 41.8986 -86.0047 79° East 472 543 23,000  Level Chicago Center
10:47AM 41.9231 -85.8211 80° East 493 567 23,000 -120 Level Chicago Center
10:48AM 41.9483 -85.6369 79° East 498 573 22,800 -660 Descending Chicago Center
10:50AM 41.9728 -85.4547 80° East 493 567 21,700 -1,140 Descending Chicago Center
10:50AM 41.9872 -85.3719 77° East 499 574 21,300 -1,080 Descending Cleveland Center
10:51AM 42.0092 -85.1919 81° East 493 567 20,300 -1,020 Descending Cleveland Center
10:52AM 42.0325 -85.0203 80° East 480 552 19,300 -660 Descending Cleveland Center
10:53AM 42.0539 -84.8456 81° East 475 547 19,000 -180 Descending Cleveland Center
10:54AM 42.0261 -84.6897 103° East 444 511 19,000 -300 Level Cleveland Center
10:55AM 41.9686 -84.5436 118° Southeast 427 491 18,400 -1,440 Descending Cleveland Center
10:56AM 41.9261 -84.3875 110° East 439 505 16,200 -2,460 Descending Cleveland Center
10:57AM 41.8847 -84.2511 112° Southeast 439 505 13,500 -2,640 Descending Cleveland Center
10:57AM 41.8714 -84.2028 110° East 415 478 12,900 -1,020 Descending Cleveland Center
10:58AM 41.8450 -84.1178 113° Southeast 415 478 12,500 -540 Descending Cleveland Center
10:59AM 41.8467 -83.9925 89° East 350 403 12,000 -300 Descending Cleveland Center
11:00AM 41.9164 -83.8900 48° Northeast 318 366 12,000  Level Cleveland Center
11:01AM 41.9903 -83.7878 46° Northeast 344 396 12,100  Climbing Cleveland Center
11:02AM 42.0617 -83.6878 46° Northeast 356 410 12,000 -180 Descending Cleveland Center
11:02AM 42.0900 -83.6500 45° Northeast 375 432 11,900  Descending Cleveland Center
11:03AM 42.1289 -83.5903 49° Northeast 363 418 12,000  Climbing Cleveland Center
11:03AM 42.1547 -83.5606 40° Northeast 306 352 11,900 -120 Descending Cleveland Center
11:04AM 42.1975 -83.5206 35° Northeast 298 343 11,900 -540 Level Cleveland Center
11:04AM 42.2208 -83.5078 22° Northeast 258 297 11,400 -1,140 Descending Cleveland Center
11:05AM 42.2589 -83.4842 25° Northeast 273 314 10,800 -960 Descending Cleveland Center
11:06AM 42.3267 -83.4450 23° Northeast 258 297 9,800 -1,200 Descending Cleveland Center
11:07AM 42.4133 -83.3983 22° Northeast 248 285 8,200 -1,200 Descending Cleveland Center
11:08AM 42.4767 -83.3647 21° North 241 277 7,200 -1,080 Descending Cleveland Center
11:09AM 42.5378 -83.3308 22° Northeast 238 274 6,100 -1,020 Descending Cleveland Center
11:10AM 42.5664 -83.2672 59° Northeast 239 275 5,300 -1,020 Descending Cleveland Center
11:11AM 42.5331 -83.1839 118° Southeast 232 267 4,100 -1,080 Descending Cleveland Center